Time;durP1;ratioP1;P1;durP2;ratioP2;P2;SDS_P1;SDS_P2;PMS_P1;PMS_P2;Temp;Humidity;BMP_temperature;BMP_pressure;BME280_temperature;BME280_humidity;BME280_pressure;Samples;Min_cycle;Max_cycle;Signal;HPM_P1;HPM_P2
2022/09/15 00:01:08;;;;;;;4.03;0.30;;;;;;;8.98;100.00;100357.75;5039740;28;20032;-53
2022/09/15 00:03:34;;;;;;;0.52;0.35;;;;;;;8.97;100.00;100353.50;5040365;28;20029;-53
2022/09/15 00:05:59;;;;;;;2.15;0.60;;;;;;;8.93;100.00;100350.41;5033703;28;20025;-53
2022/09/15 00:08:24;;;;;;;0.25;0.10;;;;;;;8.89;100.00;100351.75;5035276;28;20045;-53
2022/09/15 00:11:02;;;;;;;3.70;0.30;;;;;;;8.87;100.00;100350.31;5033021;28;20033;-54
2022/09/15 00:13:28;;;;;;;0.85;0.50;;;;;;;8.81;100.00;100357.16;5035034;28;20359;-56
2022/09/15 00:15:53;;;;;;;1.73;1.05;;;;;;;8.78;100.00;100362.81;5034059;28;20030;-53
2022/09/15 00:18:19;;;;;;;1.75;0.40;;;;;;;8.77;100.00;100361.16;5035289;28;20040;-56
2022/09/15 00:20:45;;;;;;;0.68;0.30;;;;;;;8.79;100.00;100372.38;5039829;28;20082;-50
2022/09/15 00:23:12;;;;;;;2.92;0.28;;;;;;;8.81;100.00;100374.84;5034211;28;20033;-56
2022/09/15 00:25:49;;;;;;;1.17;0.82;;;;;;;8.79;100.00;100375.00;5033415;28;20033;-55
2022/09/15 00:28:17;;;;;;;0.93;0.13;;;;;;;8.77;100.00;100366.44;5037262;28;20057;-56
2022/09/15 00:30:47;;;;;;;0.65;0.20;;;;;;;8.76;100.00;100369.28;5035925;28;20033;-55
2022/09/15 00:33:14;;;;;;;0.47;0.47;;;;;;;8.73;100.00;100373.09;5040118;28;20057;-54
2022/09/15 00:35:42;;;;;;;0.65;0.50;;;;;;;8.71;100.00;100373.28;5034461;28;20052;-55
2022/09/15 00:38:09;;;;;;;0.75;0.30;;;;;;;8.69;100.00;100374.47;5030115;28;20060;-52
2022/09/15 00:40:46;;;;;;;0.40;0.10;;;;;;;8.65;100.00;100383.75;5034299;28;20151;-49
2022/09/15 00:43:12;;;;;;;2.42;0.50;;;;;;;8.61;100.00;100377.19;5031918;28;20037;-49
2022/09/15 00:45:38;;;;;;;0.17;0.13;;;;;;;8.58;100.00;100393.41;5033080;28;20030;-50
2022/09/15 00:48:05;;;;;;;5.13;0.10;;;;;;;8.62;100.00;100389.38;5029531;28;20029;-50
2022/09/15 00:50:33;;;;;;;0.60;0.60;;;;;;;8.62;100.00;100387.59;5027610;28;20025;-51
2022/09/15 00:53:01;;;;;;;0.30;0.10;;;;;;;8.61;100.00;100387.75;5035244;28;20382;-50
2022/09/15 00:55:33;;;;;;;0.60;0.38;;;;;;;8.62;100.00;100394.69;5037583;28;20033;-50
2022/09/15 00:57:59;;;;;;;0.43;0.15;;;;;;;8.60;100.00;100401.97;5035218;28;20037;-54
2022/09/15 01:00:26;;;;;;;0.20;0.20;;;;;;;8.63;100.00;100396.34;5035082;28;20052;-55
2022/09/15 01:02:54;;;;;;;6.63;1.02;;;;;;;8.61;100.00;100398.34;5035688;28;20029;-55
2022/09/15 01:05:22;;;;;;;0.03;0.00;;;;;;;8.57;100.00;100391.75;5038717;28;20466;-57
2022/09/15 01:08:01;;;;;;;0.20;0.10;;;;;;;8.47;100.00;100392.84;5037035;28;20021;-52
2022/09/15 01:10:31;;;;;;;3.83;0.30;;;;;;;8.44;100.00;100395.84;5034557;28;20036;-53
2022/09/15 01:13:00;;;;;;;0.38;0.20;;;;;;;8.41;100.00;100395.38;5038443;28;20042;-52
2022/09/15 01:15:37;;;;;;;0.40;0.08;;;;;;;8.41;100.00;100398.81;5021625;28;20079;-51
2022/09/15 01:18:15;;;;;;;1.02;0.30;;;;;;;8.45;100.00;100402.75;5034161;28;20493;-54
2022/09/15 01:21:01;;;;;;;0.15;0.10;;;;;;;8.50;100.00;100408.34;5031824;28;20417;-54
2022/09/15 01:23:38;;;;;;;0.60;0.60;;;;;;;8.50;100.00;100403.06;5033666;28;20075;-53
2022/09/15 01:26:32;;;;;;;0.30;0.10;;;;;;;8.52;100.00;100400.25;5031803;28;20045;-52
2022/09/15 01:29:45;;;;;;;2.72;0.30;;;;;;;8.52;100.00;100406.34;5030155;28;20033;-51
2022/09/15 01:35:32;;;;;;;0.32;0.30;;;;;;;8.56;100.00;100406.78;5012400;28;20047;-51
2022/09/15 01:38:15;;;;;;;0.43;0.20;;;;;;;8.54;100.00;100408.78;5033588;28;20546;-49
2022/09/15 01:40:49;;;;;;;0.10;0.10;;;;;;;8.50;100.00;100413.63;5043018;28;20064;-52
2022/09/15 01:43:17;;;;;;;0.60;0.20;;;;;;;8.47;100.00;100407.88;5044705;28;20060;-49
2022/09/15 01:45:46;;;;;;;0.20;0.20;;;;;;;8.45;100.00;100402.75;5043329;28;20243;-53
2022/09/15 01:48:12;;;;;;;2.38;0.30;;;;;;;8.44;100.00;100409.06;5039138;28;20033;-53
2022/09/15 01:50:43;;;;;;;0.55;0.10;;;;;;;8.46;100.00;100406.22;5033445;28;20144;-52
2022/09/15 01:53:13;;;;;;;0.70;0.10;;;;;;;8.51;100.00;100407.31;5038122;28;20486;-51
2022/09/15 01:55:54;;;;;;;0.43;0.20;;;;;;;8.53;100.00;100401.88;5037453;28;20439;-51
2022/09/15 01:58:20;;;;;;;1.00;0.30;;;;;;;8.55;100.00;100412.28;5032668;28;20037;-52
2022/09/15 02:00:52;;;;;;;1.13;0.25;;;;;;;8.54;100.00;100408.78;5047492;28;20029;-55
2022/09/15 02:03:28;;;;;;;3.03;0.80;;;;;;;8.55;100.00;100405.16;5040991;28;20086;-54
2022/09/15 02:06:06;;;;;;;0.25;0.25;;;;;;;8.54;100.00;100395.56;5035562;28;20037;-51
2022/09/15 02:08:46;;;;;;;0.22;0.10;;;;;;;8.54;100.00;100394.75;5038055;28;20033;-53
2022/09/15 02:11:23;;;;;;;3.13;0.47;;;;;;;8.55;100.00;100399.06;5043973;28;20087;-52
2022/09/15 02:14:16;;;;;;;0.20;0.20;;;;;;;8.56;100.00;100403.34;5035569;28;21008;-51
2022/09/15 02:16:45;;;;;;;0.38;0.15;;;;;;;8.51;100.00;100409.16;5036713;28;20033;-54
2022/09/15 02:19:16;;;;;;;0.40;0.32;;;;;;;8.52;100.00;100406.34;5046186;28;20378;-52
2022/09/15 02:22:01;;;;;;;0.75;0.50;;;;;;;8.52;100.00;100390.50;5036590;28;20098;-52
2022/09/15 02:24:36;;;;;;;0.43;0.10;;;;;;;8.52;100.00;100395.78;5038672;28;20041;-52
2022/09/15 02:27:06;;;;;;;0.45;0.28;;;;;;;8.52;100.00;100401.06;5040478;28;20091;-54
2022/09/15 02:29:35;;;;;;;0.32;0.17;;;;;;;8.51;100.00;100403.88;5039818;28;20533;-51
2022/09/15 02:32:03;;;;;;;0.30;0.30;;;;;;;8.52;100.00;100402.88;5040517;28;20432;-54
2022/09/15 02:34:36;;;;;;;1.75;0.20;;;;;;;8.59;100.00;100405.63;5039667;28;20095;-54
2022/09/15 02:37:03;;;;;;;0.30;0.30;;;;;;;8.60;100.00;100410.72;5033357;28;20670;-53
2022/09/15 02:39:34;;;;;;;0.45;0.45;;;;;;;8.62;100.00;100411.38;5036243;28;20025;-50
2022/09/15 02:42:01;;;;;;;0.80;0.40;;;;;;;8.64;100.00;100406.72;5036281;28;20021;-54
2022/09/15 02:44:29;;;;;;;0.68;0.20;;;;;;;8.64;100.00;100408.53;5043569;28;20020;-52
2022/09/15 02:46:55;;;;;;;0.22;0.22;;;;;;;8.64;100.00;100404.06;5040134;28;20037;-55
2022/09/15 02:49:20;;;;;;;0.22;0.15;;;;;;;8.65;100.00;100412.84;5042021;28;20036;-54
2022/09/15 02:51:45;;;;;;;3.90;0.30;;;;;;;8.66;100.00;100422.41;5036161;28;20112;-55
2022/09/15 02:54:11;;;;;;;0.38;0.10;;;;;;;8.67;100.00;100419.59;5034016;28;20021;-53
2022/09/15 02:56:36;;;;;;;0.63;0.20;;;;;;;8.71;100.00;100417.41;5033412;28;20064;-53
2022/09/15 02:59:02;;;;;;;0.77;0.38;;;;;;;8.72;100.00;100417.22;5037771;28;20036;-54
2022/09/15 03:01:30;;;;;;;0.52;0.13;;;;;;;8.74;100.00;100417.84;5038276;28;20037;-52
2022/09/15 03:03:56;;;;;;;0.10;0.00;;;;;;;8.73;100.00;100415.41;5037290;28;20493;-56
2022/09/15 03:06:22;;;;;;;8.25;0.30;;;;;;;8.77;100.00;100429.06;5040852;28;20033;-54
2022/09/15 03:08:55;;;;;;;5.38;0.38;;;;;;;8.81;100.00;100427.72;5031962;28;20060;-55
2022/09/15 03:11:23;;;;;;;0.80;0.10;;;;;;;8.85;100.00;100426.34;5035868;28;20037;-53
2022/09/15 03:13:53;;;;;;;0.73;0.25;;;;;;;8.87;100.00;100426.97;5036423;28;20055;-50
2022/09/15 03:16:18;;;;;;;3.75;0.25;;;;;;;8.88;100.00;100424.16;5035006;28;20488;-55
2022/09/15 03:18:44;;;;;;;5.82;0.73;;;;;;;8.89;100.00;100425.81;5034227;28;20167;-52
2022/09/15 03:21:12;;;;;;;0.20;0.20;;;;;;;8.94;100.00;100419.97;5040268;28;20029;-52
2022/09/15 03:23:37;;;;;;;0.30;0.30;;;;;;;8.95;100.00;100426.88;5036607;28;20030;-54
2022/09/15 03:26:03;;;;;;;2.17;0.45;;;;;;;8.97;100.00;100424.91;5034113;28;20375;-55
2022/09/15 03:28:29;;;;;;;0.10;0.00;;;;;;;9.00;100.00;100434.28;5027482;28;20051;-52
2022/09/15 03:30:55;;;;;;;0.20;0.20;;;;;;;9.02;100.00;100430.47;5031040;28;20021;-52
2022/09/15 03:33:21;;;;;;;0.45;0.15;;;;;;;9.03;100.00;100440.03;5031847;28;20017;-54
2022/09/15 03:35:48;;;;;;;0.52;0.47;;;;;;;9.04;100.00;100436.41;5026704;28;20061;-53
2022/09/15 03:38:14;;;;;;;1.55;1.05;;;;;;;9.08;100.00;100431.53;5037540;28;20079;-50
2022/09/15 03:40:41;;;;;;;0.22;0.22;;;;;;;9.11;100.00;100436.47;5030001;28;20033;-55
2022/09/15 03:43:08;;;;;;;0.73;0.68;;;;;;;9.14;100.00;100436.13;5033834;28;20037;-55
2022/09/15 03:45:33;;;;;;;0.77;0.30;;;;;;;9.15;100.00;100433.28;5036789;28;20025;-52
2022/09/15 03:47:58;;;;;;;0.43;0.40;;;;;;;9.16;100.00;100432.28;5038841;28;20090;-53
2022/09/15 03:50:24;;;;;;;4.47;0.30;;;;;;;9.19;100.00;100436.41;5033222;28;20570;-56
2022/09/15 03:52:49;;;;;;;0.55;0.20;;;;;;;9.19;100.00;100444.34;5034282;28;20504;-55
2022/09/15 03:55:15;;;;;;;0.65;0.22;;;;;;;9.21;100.00;100439.66;5034090;28;20037;-54
2022/09/15 03:57:40;;;;;;;2.17;0.68;;;;;;;9.24;100.00;100441.97;5037253;28;20727;-56
2022/09/15 04:00:07;;;;;;;2.80;1.55;;;;;;;9.27;100.00;100433.66;5031211;28;20129;-50
2022/09/15 04:02:33;;;;;;;0.57;0.20;;;;;;;9.28;100.00;100429.19;5030633;28;20116;-57
2022/09/15 04:04:58;;;;;;;0.93;0.30;;;;;;;9.25;100.00;100427.72;5029591;28;20116;-56
2022/09/15 04:07:24;;;;;;;0.38;0.00;;;;;;;9.27;100.00;100423.06;5036860;28;20032;-56
2022/09/15 04:09:50;;;;;;;0.10;0.10;;;;;;;9.27;100.00;100417.78;5036538;28;20040;-54
2022/09/15 04:12:15;;;;;;;0.35;0.10;;;;;;;9.27;100.00;100417.78;5035720;28;20048;-52
2022/09/15 04:14:41;;;;;;;0.50;0.30;;;;;;;9.26;100.00;100423.25;5033698;28;20387;-55
2022/09/15 04:17:06;;;;;;;0.20;0.20;;;;;;;9.26;100.00;100425.88;5034196;28;20115;-54
2022/09/15 04:19:32;;;;;;;0.63;0.45;;;;;;;9.26;100.00;100429.34;5034847;28;20063;-52
2022/09/15 04:21:57;;;;;;;2.53;0.30;;;;;;;9.24;100.00;100423.44;5037117;28;20474;-55
2022/09/15 04:24:22;;;;;;;1.75;0.30;;;;;;;9.25;100.00;100426.91;5030625;28;20443;-55
2022/09/15 04:26:48;;;;;;;0.85;0.68;;;;;;;9.27;100.00;100423.06;5035771;28;20500;-53
2022/09/15 04:29:16;;;;;;;0.60;0.55;;;;;;;9.29;100.00;100428.16;5035214;28;20378;-51
2022/09/15 04:31:42;;;;;;;0.75;0.45;;;;;;;9.27;100.00;100433.66;5031617;28;20533;-53
2022/09/15 04:34:08;;;;;;;0.20;0.20;;;;;;;9.27;100.00;100431.00;5031777;28;20029;-54
2022/09/15 04:36:33;;;;;;;0.43;0.40;;;;;;;9.27;100.00;100431.00;5029469;28;20029;-55
2022/09/15 04:38:59;;;;;;;1.67;0.17;;;;;;;9.27;100.00;100430.19;5035323;28;20041;-53
2022/09/15 04:41:25;;;;;;;0.43;0.20;;;;;;;9.26;100.00;100433.84;5037069;28;20033;-55
2022/09/15 04:43:50;;;;;;;0.20;0.20;;;;;;;9.26;100.00;100433.84;5032989;28;20108;-55
2022/09/15 04:46:17;;;;;;;0.75;0.75;;;;;;;9.25;100.00;100440.13;5032883;28;20382;-55
2022/09/15 04:48:44;;;;;;;3.63;0.60;;;;;;;9.21;100.00;100437.00;5035168;28;20329;-57
2022/09/15 04:51:13;;;;;;;3.63;0.43;;;;;;;9.18;100.00;100443.50;5031070;28;20029;-53
2022/09/15 04:53:40;;;;;;;0.68;0.30;;;;;;;9.12;100.00;100438.94;5031464;28;20064;-54
2022/09/15 04:56:09;;;;;;;0.75;0.35;;;;;;;9.07;100.00;100443.16;5032788;28;20030;-51
2022/09/15 04:58:47;;;;;;;3.63;0.40;;;;;;;9.01;100.00;100443.84;5038555;28;20025;-52
2022/09/15 05:01:15;;;;;;;1.85;0.25;;;;;;;8.93;100.00;100439.47;5041633;28;20435;-53
2022/09/15 05:03:41;;;;;;;0.40;0.40;;;;;;;8.91;100.00;100444.13;5044086;28;20017;-53
2022/09/15 05:06:09;;;;;;;1.60;0.47;;;;;;;8.92;100.00;100446.59;5034570;28;20043;-52
2022/09/15 05:08:35;;;;;;;0.55;0.55;;;;;;;8.95;100.00;100446.22;5035188;28;20029;-51
2022/09/15 05:11:02;;;;;;;1.55;0.70;;;;;;;9.01;100.00;100455.28;5034800;28;20026;-53
2022/09/15 05:13:28;;;;;;;0.75;0.40;;;;;;;9.08;100.00;100455.34;5042527;28;20045;-54
2022/09/15 05:15:53;;;;;;;0.93;0.93;;;;;;;9.14;100.00;100459.94;5038287;28;20036;-53
2022/09/15 05:18:18;;;;;;;1.48;0.30;;;;;;;9.20;100.00;100456.56;5044512;28;20024;-52
2022/09/15 05:20:44;;;;;;;1.92;0.40;;;;;;;9.26;100.00;100453.16;5037983;28;20391;-51
2022/09/15 05:23:09;;;;;;;1.92;0.68;;;;;;;9.31;100.00;100466.66;5035928;28;20055;-53
2022/09/15 05:25:35;;;;;;;2.40;0.57;;;;;;;9.37;100.00;100465.09;5046212;28;20039;-55
2022/09/15 05:28:00;;;;;;;0.40;0.40;;;;;;;9.43;100.00;100468.88;5038503;28;20112;-53
2022/09/15 05:30:26;;;;;;;0.80;0.45;;;;;;;9.49;100.00;100470.78;5045142;28;20302;-55
2022/09/15 05:32:52;;;;;;;4.60;1.85;;;;;;;9.53;100.00;100467.56;5040641;28;20059;-53
2022/09/15 05:35:17;;;;;;;1.67;0.63;;;;;;;9.57;100.00;100462.72;5035904;28;20035;-52
2022/09/15 05:37:43;;;;;;;0.77;0.40;;;;;;;9.61;100.00;100470.13;5037508;28;20522;-54
2022/09/15 05:40:08;;;;;;;2.05;1.08;;;;;;;9.65;100.00;100469.75;5043305;28;20120;-57
2022/09/15 05:42:34;;;;;;;4.43;0.70;;;;;;;9.69;100.00;100471.84;5045496;28;20041;-53
2022/09/15 05:44:59;;;;;;;0.63;0.45;;;;;;;9.74;100.00;100477.41;5040786;28;20029;-52
2022/09/15 05:47:25;;;;;;;3.03;0.70;;;;;;;9.78;100.00;100485.78;5045980;28;20250;-54
2022/09/15 05:49:52;;;;;;;0.55;0.43;;;;;;;9.81;100.00;100482.78;5040131;28;20079;-55
2022/09/15 05:52:18;;;;;;;0.95;0.57;;;;;;;9.86;100.00;100483.06;5030978;28;20037;-54
2022/09/15 05:54:43;;;;;;;0.90;0.80;;;;;;;9.93;100.00;100483.94;5036017;28;20036;-51
2022/09/15 05:57:08;;;;;;;1.50;0.70;;;;;;;10.02;100.00;100487.31;5029512;28;20536;-52
2022/09/15 05:59:34;;;;;;;0.60;0.30;;;;;;;10.12;100.00;100486.97;5036750;28;20505;-53
2022/09/15 06:02:00;;;;;;;4.05;0.98;;;;;;;10.20;100.00;100484.22;5028924;28;20363;-55
2022/09/15 06:04:26;;;;;;;2.22;1.52;;;;;;;10.29;100.00;100490.25;5037525;28;20024;-55
2022/09/15 06:06:51;;;;;;;2.38;1.30;;;;;;;10.34;100.00;100488.66;5034644;28;20381;-53
2022/09/15 06:09:17;;;;;;;0.82;0.80;;;;;;;10.37;100.00;100488.28;5032370;28;20512;-54
2022/09/15 06:11:43;;;;;;;4.43;1.25;;;;;;;10.43;100.00;100490.19;5036052;28;20403;-53
2022/09/15 06:14:08;;;;;;;2.78;1.02;;;;;;;10.53;100.00;100489.84;5034485;28;20037;-57
2022/09/15 06:16:34;;;;;;;2.08;0.40;;;;;;;10.73;100.00;100494.53;5036486;28;20112;-51
2022/09/15 06:19:00;;;;;;;5.28;1.40;;;;;;;10.81;100.00;100494.38;5035195;28;20037;-54
2022/09/15 06:21:27;;;;;;;1.00;0.63;;;;;;;10.94;100.00;100499.78;5038253;28;20081;-54
2022/09/15 06:24:02;;;;;;;7.93;1.20;;;;;;;11.01;100.00;100502.50;5032955;28;20055;-54
2022/09/15 06:26:28;;;;;;;0.55;0.52;;;;;;;11.08;100.00;100500.72;5043516;28;20021;-52
2022/09/15 06:28:56;;;;;;;5.57;1.05;;;;;;;11.17;100.00;100499.53;5034053;28;20042;-53
2022/09/15 06:31:23;;;;;;;2.45;0.88;;;;;;;11.25;100.00;100502.03;5034595;28;20040;-52
2022/09/15 06:33:51;;;;;;;1.60;0.70;;;;;;;11.33;100.00;100511.69;5037130;28;20036;-57
2022/09/15 06:36:17;;;;;;;3.55;1.60;;;;;;;11.40;100.00;100512.53;5030655;28;20415;-55
2022/09/15 06:38:43;;;;;;;3.15;0.85;;;;;;;11.50;100.00;100507.69;5029741;28;20450;-57
2022/09/15 06:41:10;;;;;;;4.65;0.65;;;;;;;11.67;100.00;100510.03;5035418;28;20041;-52
2022/09/15 06:43:36;;;;;;;4.65;0.82;;;;;;;11.69;100.00;100519.44;5033292;28;20513;-57
2022/09/15 06:46:10;;;;;;;4.82;1.58;;;;;;;11.72;100.00;100515.56;5025319;28;20506;-53
2022/09/15 06:48:37;;;;;;;2.67;0.68;;;;;;;11.75;100.00;100517.84;5030979;28;20449;-54
2022/09/15 06:51:04;;;;;;;7.20;1.15;;;;;;;11.71;100.00;100511.28;5034196;28;20082;-51
2022/09/15 06:53:31;;;;;;;6.93;0.47;;;;;;;11.67;100.00;100517.97;5037686;28;20485;-57
2022/09/15 06:56:02;;;;;;;1.48;0.85;;;;;;;11.68;100.00;100517.00;5025571;28;20041;-56
2022/09/15 06:58:27;;;;;;;1.20;0.40;;;;;;;11.67;100.00;100520.63;5031258;28;20061;-54
2022/09/15 07:00:52;;;;;;;7.38;0.75;;;;;;;11.75;100.00;100521.31;5029174;28;20123;-55
2022/09/15 07:03:18;;;;;;;2.45;0.38;;;;;;;11.86;100.00;100532.41;5028683;28;20946;-52
2022/09/15 07:05:45;;;;;;;3.78;0.32;;;;;;;11.85;100.00;100528.94;5028424;28;20037;-50
2022/09/15 07:08:10;;;;;;;0.90;0.35;;;;;;;11.89;100.00;100526.72;5030159;28;20021;-53
2022/09/15 07:10:36;;;;;;;3.67;0.60;;;;;;;11.93;100.00;100533.28;5030798;28;20461;-52
2022/09/15 07:13:02;;;;;;;7.95;0.35;;;;;;;11.99;100.00;100530.63;5027682;28;20119;-53
2022/09/15 07:15:27;;;;;;;3.70;0.80;;;;;;;12.00;100.00;100534.94;5034250;28;20091;-56
2022/09/15 07:17:53;;;;;;;2.75;0.52;;;;;;;12.01;100.00;100530.44;5033213;28;20114;-52
2022/09/15 07:20:18;;;;;;;4.93;0.45;;;;;;;12.02;100.00;100525.94;5030711;28;20029;-57
2022/09/15 07:22:43;;;;;;;3.28;0.32;;;;;;;12.03;100.00;100531.06;5042804;28;20060;-52
2022/09/15 07:25:09;;;;;;;5.47;1.30;;;;;;;12.06;100.00;100543.13;5041741;28;20036;-56
2022/09/15 07:27:34;;;;;;;2.28;0.20;;;;;;;12.13;100.00;100531.50;5036406;28;20029;-54
2022/09/15 07:30:00;;;;;;;5.95;0.82;;;;;;;12.17;100.00;100535.41;5037819;28;20086;-55
2022/09/15 07:32:26;;;;;;;5.22;0.82;;;;;;;12.21;100.00;100538.50;5034165;28;20044;-52
2022/09/15 07:34:51;;;;;;;2.20;0.20;;;;;;;12.25;100.00;100539.72;5031009;28;20029;-56
2022/09/15 07:37:17;;;;;;;0.43;0.10;;;;;;;12.30;100.00;100537.28;5032706;28;20436;-55
2022/09/15 07:39:42;;;;;;;5.03;0.60;;;;;;;12.33;100.00;100542.19;5041532;28;20582;-56
2022/09/15 07:42:08;;;;;;;4.88;0.90;;;;;;;12.39;100.00;100541.41;5039171;28;20086;-54
2022/09/15 07:44:33;;;;;;;3.38;0.50;;;;;;;12.47;100.00;100539.53;5041904;28;20160;-53
2022/09/15 07:46:58;;;;;;;2.38;0.75;;;;;;;12.51;100.00;100548.78;5035016;28;20391;-53
2022/09/15 07:49:24;;;;;;;2.78;0.28;;;;;;;12.57;100.00;100534.66;5032689;28;20030;-53
2022/09/15 07:51:49;;;;;;;10.75;0.88;;;;;;;12.63;100.00;100534.66;5034461;28;20432;-51
2022/09/15 07:54:14;;;;;;;3.60;0.60;;;;;;;12.73;100.00;100523.63;5043071;28;20025;-54
2022/09/15 07:56:40;;;;;;;1.00;0.15;;;;;;;12.81;100.00;100528.75;5044230;28;20060;-54
2022/09/15 07:59:06;;;;;;;2.15;0.40;;;;;;;12.90;100.00;100533.88;5045195;28;20025;-55
2022/09/15 08:01:31;;;;;;;2.30;0.40;;;;;;;12.98;100.00;100526.47;5038563;28;20029;-52
2022/09/15 08:03:57;;;;;;;8.48;0.82;;;;;;;13.05;100.00;100527.31;5040098;28;20544;-54
2022/09/15 08:06:25;;;;;;;2.45;0.73;;;;;;;13.15;100.00;100526.88;5036424;28;20026;-53
2022/09/15 08:08:51;;;;;;;7.18;0.20;;;;;;;13.23;100.00;100528.53;5044669;28;20032;-55
2022/09/15 08:11:18;;;;;;;6.63;0.20;;;;;;;13.30;100.00;100530.19;5052160;28;20029;-52
2022/09/15 08:13:44;;;;;;;3.47;0.52;;;;;;;13.38;100.00;100538.97;5033297;28;20541;-50
2022/09/15 08:16:15;;;;;;;9.27;1.75;;;;;;;13.44;100.00;100530.16;5040153;28;20176;-53
2022/09/15 08:18:42;;;;;;;2.20;0.20;;;;;;;13.45;100.00;100523.78;5038817;28;20033;-52
2022/09/15 08:21:10;;;;;;;7.55;1.65;;;;;;;13.50;100.00;100530.16;5044031;28;20123;-55
2022/09/15 08:23:36;;;;;;;7.75;0.75;;;;;;;13.52;100.00;100528.06;5032080;28;20056;-49
2022/09/15 08:26:05;;;;;;;6.72;0.55;;;;;;;13.49;100.00;100533.00;5038263;28;20026;-53
2022/09/15 08:28:31;;;;;;;3.72;0.40;;;;;;;13.46;100.00;100530.75;5040320;28;20029;-54
2022/09/15 08:31:01;;;;;;;2.65;0.30;;;;;;;13.44;100.00;100528.28;5037109;28;20041;-55
2022/09/15 08:33:27;;;;;;;4.22;0.40;;;;;;;13.43;100.00;100532.00;5043840;28;20601;-55
2022/09/15 08:35:53;;;;;;;2.88;0.88;;;;;;;13.45;100.00;100537.09;5037307;28;20067;-55
2022/09/15 08:38:19;;;;;;;2.95;0.40;;;;;;;13.54;100.00;100546.50;5038352;28;20547;-51
2022/09/15 08:40:45;;;;;;;3.70;1.50;;;;;;;13.85;100.00;100543.13;5040204;28;20017;-51
2022/09/15 08:43:22;;;;;;;14.05;1.13;;;;;;;14.19;100.00;100547.28;5040636;28;20029;-54
2022/09/15 08:45:57;;;;;;;5.22;0.65;;;;;;;14.45;100.00;100544.69;5040090;28;20826;-51
2022/09/15 08:48:32;;;;;;;0.63;0.20;;;;;;;14.48;100.00;100537.09;5034608;28;20033;-53
2022/09/15 08:51:02;;;;;;;6.90;1.17;;;;;;;14.40;100.00;100534.66;5043605;28;20119;-53
2022/09/15 08:53:34;;;;;;;5.60;1.17;;;;;;;14.17;100.00;100529.88;5042639;28;20033;-52
2022/09/15 08:56:02;;;;;;;;;;;;;;;14.04;100.00;100536.06;5037426;28;20026;-52
2022/09/15 08:58:30;;;;;;;10.00;1.17;;;;;;;13.98;100.00;100531.59;5042671;28;20059;-50
2022/09/15 09:01:23;;;;;;;2.08;0.45;;;;;;;13.93;100.00;100544.75;5043357;28;21291;-49
2022/09/15 09:04:18;;;;;;;1.77;0.40;;;;;;;14.00;100.00;100545.53;5039932;28;20513;-51
2022/09/15 09:07:02;;;;;;;3.13;0.70;;;;;;;14.16;100.00;100542.38;5040810;28;20033;-50
2022/09/15 09:09:41;;;;;;;5.90;0.77;;;;;;;14.35;100.00;100548.66;5042078;28;20491;-50
2022/09/15 09:12:28;;;;;;;1.85;0.15;;;;;;;14.56;100.00;100552.88;5042511;28;20406;-50
2022/09/15 09:15:03;;;;;;;4.95;0.63;;;;;;;14.80;100.00;100540.56;5033337;28;20037;-51
2022/09/15 09:17:35;;;;;;;7.00;0.88;;;;;;;15.11;100.00;100543.41;5036128;28;20025;-50
2022/09/15 09:20:15;;;;;;;3.60;0.90;;;;;;;15.20;100.00;100528.72;5038860;28;20462;-51
2022/09/15 09:22:45;;;;;;;1.45;0.20;;;;;;;15.33;100.00;100544.63;5033891;28;20038;-53
2022/09/15 09:25:13;;;;;;;4.32;0.55;;;;;;;15.27;100.00;100540.16;5035171;28;20025;-51
2022/09/15 09:27:39;;;;;;;3.53;0.65;;;;;;;15.21;100.00;100546.41;5039939;28;20052;-53
2022/09/15 09:30:18;;;;;;;7.60;1.27;;;;;;;15.16;100.00;100535.56;5036940;28;20118;-51
2022/09/15 09:33:07;;;;;;;2.25;0.75;;;;;;;15.14;100.00;100546.44;5046050;28;20082;-54
2022/09/15 09:35:38;;;;;;;3.45;0.10;;;;;;;15.07;100.00;100544.88;5031733;28;20148;-52
2022/09/15 09:38:04;;;;;;;3.83;0.10;;;;;;;15.13;100.00;100542.16;5039875;28;20430;-54
2022/09/15 09:40:32;;;;;;;4.47;1.17;;;;;;;15.29;100.00;100547.97;5036051;28;20060;-53
2022/09/15 09:42:59;;;;;;;5.00;1.23;;;;;;;15.39;100.00;100532.25;5038628;28;20030;-56
2022/09/15 09:45:25;;;;;;;2.90;0.30;;;;;;;15.53;100.00;100533.72;5028592;28;20052;-54
2022/09/15 09:47:51;;;;;;;4.47;0.77;;;;;;;15.63;100.00;100533.22;5035813;28;20067;-52
2022/09/15 09:50:37;;;;;;;2.65;0.75;;;;;;;15.48;100.00;100525.56;5042487;28;20037;-52
2022/09/15 09:53:25;;;;;;;7.28;0.47;;;;;;;15.55;100.00;100534.34;5034530;28;20065;-56
2022/09/15 09:55:53;;;;;;;4.38;1.55;;;;;;;15.54;100.00;100542.56;5041432;28;20425;-53
2022/09/15 09:58:22;;;;;;;3.88;0.55;;;;;;;15.53;100.00;100530.25;5035071;28;20385;-52
2022/09/15 10:00:47;;;;;;;7.65;0.20;;;;;;;15.48;100.00;100538.94;5037746;28;20478;-50
2022/09/15 10:03:25;;;;;;;6.95;0.80;;;;;;;15.45;100.00;100531.34;5038797;28;20036;-54
2022/09/15 10:06:14;;;;;;;4.85;0.98;;;;;;;15.54;100.00;100534.53;5038051;28;20107;-53
2022/09/15 10:08:58;;;;;;;6.20;0.30;;;;;;;15.49;100.00;100546.72;5043478;28;20060;-52
2022/09/15 10:11:45;;;;;;;2.08;0.43;;;;;;;15.44;100.00;100535.91;5041143;28;20048;-51
2022/09/15 10:14:26;;;;;;;3.25;1.15;;;;;;;15.51;100.00;100543.00;5035596;28;20061;-51
2022/09/15 10:17:03;;;;;;;5.90;0.63;;;;;;;15.61;100.00;100546.00;5035175;28;20057;-52
2022/09/15 10:19:36;;;;;;;2.88;0.47;;;;;;;15.63;100.00;100546.59;5039548;28;20040;-52
2022/09/15 10:22:03;;;;;;;2.03;0.70;;;;;;;15.65;100.00;100542.66;5032760;28;20095;-51
2022/09/15 10:24:41;;;;;;;3.70;0.40;;;;;;;15.74;100.00;100543.19;5039889;28;20471;-55
2022/09/15 10:27:15;;;;;;;2.33;0.30;;;;;;;15.74;100.00;100545.88;5043034;28;20364;-51
2022/09/15 10:29:40;;;;;;;2.55;0.20;;;;;;;15.62;100.00;100542.28;5038156;28;20052;-50
2022/09/15 10:32:29;;;;;;;6.22;0.70;;;;;;;15.72;100.00;100542.63;5042530;28;20050;-49
2022/09/15 10:35:03;;;;;;;5.63;0.52;;;;;;;15.98;100.00;100535.28;5043684;28;20075;-50
2022/09/15 10:37:34;;;;;;;5.18;0.30;;;;;;;16.63;100.00;100532.75;5039963;28;20032;-52
2022/09/15 10:40:16;;;;;;;2.60;0.85;;;;;;;17.33;100.00;100523.97;5038222;28;20107;-52
2022/09/15 10:42:52;;;;;;;1.17;0.55;;;;;;;17.46;100.00;100522.09;5042255;28;20082;-48
2022/09/15 10:45:23;;;;;;;1.55;0.43;;;;;;;17.10;100.00;100524.78;5039712;28;20041;-50
2022/09/15 10:48:11;;;;;;;2.65;0.25;;;;;;;16.90;100.00;100527.00;5040303;28;20025;-52
2022/09/15 10:50:54;;;;;;;1.30;0.60;;;;;;;17.18;100.00;100529.78;5041613;28;20124;-52
2022/09/15 10:53:41;;;;;;;1.70;0.80;;;;;;;17.43;100.00;100531.44;5036149;28;20033;-52
2022/09/15 10:56:19;;;;;;;7.20;0.60;;;;;;;17.10;100.00;100537.38;5038710;28;20076;-52
2022/09/15 10:58:50;;;;;;;1.38;0.22;;;;;;;17.09;100.00;100546.44;5038795;28;20116;-53
2022/09/15 11:01:32;;;;;;;2.38;0.20;;;;;;;16.81;100.00;100549.81;5042750;28;20052;-53
2022/09/15 11:04:28;;;;;;;1.65;0.70;;;;;;;16.58;100.00;100540.66;5038157;28;20040;-54
2022/09/15 11:07:15;;;;;;;4.13;0.90;;;;;;;16.52;100.00;100544.22;5035298;28;20426;-54
2022/09/15 11:09:52;;;;;;;7.38;0.38;;;;;;;16.28;100.00;100554.03;5037685;28;20124;-54
2022/09/15 11:12:47;;;;;;;2.00;0.65;;;;;;;16.40;100.00;100546.88;5031500;28;20033;-56
2022/09/15 11:15:19;;;;;;;2.47;0.20;;;;;;;16.33;100.00;100551.50;5038581;28;20033;-52
2022/09/15 11:17:50;;;;;;;1.10;0.20;;;;;;;16.30;100.00;100543.94;5034204;28;20068;-53
2022/09/15 11:20:16;;;;;;;;;;;;;;;16.38;100.00;100545.47;5033244;28;20029;-56
2022/09/15 11:22:53;;;;;;;2.10;0.20;;;;;;;16.46;100.00;100547.81;5043830;28;20002;-50
2022/09/15 11:25:25;;;;;;;4.25;0.47;;;;;;;16.49;100.00;100558.06;5033271;28;20028;-54
2022/09/15 11:28:22;;;;;;;3.42;0.20;;;;;;;16.47;100.00;100557.47;5037499;28;20031;-53
2022/09/15 11:30:59;;;;;;;9.35;0.82;;;;;;;16.78;100.00;100559.94;5033833;28;20029;-56
2022/09/15 11:33:28;;;;;;;3.20;1.15;;;;;;;17.00;100.00;100551.34;5031045;28;20462;-53
2022/09/15 11:36:32;;;;;;;2.03;0.40;;;;;;;16.81;100.00;100557.84;5028325;28;20322;-53
2022/09/15 11:39:15;;;;;;;2.05;0.22;;;;;;;16.82;100.00;100556.78;5035569;28;20132;-52